Latest Weather Observations for Rottnest Island

IDW60901

Issued at 6:55 pm WST Thursday 28 August 2014 (issued every 10 minutes, with the page automatically refreshed every 10 minutes)

About weather observations | Map of Perth area stations | Latest observations for Perth area | Other Formats
Station Details ID: 009193 Name: ROTTNEST ISLAND Lat: -32.01 Lon: 115.50 Height: 43.1 m
Data from the previous 72 hours. | See also: Recent months at Rottnest Island
Date/Time
WST
Tmp

°C
App
Tmp
°C
Dew
Point
°C
Rel
Hum
%
Delta-T

°C
Wind Press
QNH
hPa
Press
MSL
hPa
Rain
since
9 am
mm
Dir
 
Spd
km/h
Gust
km/h
Spd
kts
Gust
kts
28/06:30pm 19.7 15.8 16.9 84 1.7 NW 33 41 18 22 1014.7 1014.6 0.0
28/06:00pm 19.8 15.8 16.6 82 1.9 NNW 33 43 18 23 1014.4 1014.3 0.0
28/05:30pm 19.9 16.0 16.5 81 2.1 NNW 32 41 17 22 1014.3 1014.2 0.0
28/05:00pm 19.9 15.9 16.3 80 2.2 NNW 32 43 17 23 1014.0 1013.9 0.0
28/04:30pm 20.0 15.7 16.0 78 2.4 NNW 33 41 18 22 1013.9 1013.8 0.0
28/04:00pm 20.2 16.1 16.0 77 2.5 NNW 32 41 17 22 1014.1 1014.0 0.0
28/03:30pm 20.5 15.7 15.5 73 3.0 NNW 35 43 19 23 1014.2 1014.1 0.0
28/03:00pm 20.8 16.5 15.4 71 3.2 NNW 32 41 17 22 1014.2 1014.1 0.0
28/02:30pm 21.6 15.9 13.0 58 4.9 NW 35 44 19 24 1014.4 1014.3 0.0
28/02:00pm 20.8 16.0 14.5 67 3.7 NNW 33 41 18 22 1014.5 1014.4 0.0
28/01:30pm 21.4 17.1 15.3 68 3.6 NNW 32 41 17 22 1014.9 1014.8 0.0
28/01:00pm 21.0 16.1 14.4 66 3.9 NNW 33 39 18 21 1015.0 1014.9 0.0
28/12:30pm 21.1 16.9 14.7 67 3.8 NNW 30 35 16 19 1015.3 1015.2 0.0
28/12:00pm 21.0 16.2 13.9 64 4.1 N 32 41 17 22 1015.5 1015.4 0.0
28/11:30am 20.9 16.6 14.5 67 3.7 N 30 35 16 19 1015.5 1015.4 0.0
28/11:00am 20.8 17.6 15.4 71 3.2 N 26 32 14 17 1015.9 1015.8 0.0
28/10:30am 19.5 15.1 14.1 71 3.1 N 30 35 16 19 1016.0 1015.9 0.0
28/10:00am 18.5 13.9 13.6 73 2.8 N 30 35 16 19 1015.9 1015.8 0.0
28/09:30am 18.4 12.7 13.0 71 3.0 N 35 41 19 22 1016.0 1015.9 0.0
28/09:00am 17.8 12.6 12.7 72 2.8 N 32 37 17 20 1016.1 1016.0 0.0
28/08:30am 17.6 12.6 12.3 71 2.9 N 30 39 16 21 1016.2 1016.1 0.0
28/08:00am 17.1 11.6 12.0 72 2.8 N 32 43 17 23 1015.9 1015.8 0.0
28/07:30am 17.2 12.5 12.1 72 2.8 N 28 37 15 20 1015.8 1015.7 0.0
28/07:00am 16.7 12.7 11.8 73 2.7 N 24 33 13 18 1015.8 1015.7 0.0
28/06:30am 16.4 11.6 11.6 73 2.6 N 28 35 15 19 1015.6 1015.5 0.0
28/06:00am 16.2 11.4 11.6 74 2.5 N 28 35 15 19 1015.4 1015.3 0.0
28/05:30am 16.5 12.0 11.4 72 2.8 N 26 33 14 18 1015.3 1015.2 0.0
28/05:00am 16.9 13.4 12.2 74 2.6 N 22 32 12 17 1015.5 1015.4 0.0
28/04:30am 17.1 13.7 12.6 75 2.5 N 22 28 12 15 1015.2 1015.1 0.0
28/04:00am 16.7 13.7 12.0 74 2.6 N 19 24 10 13 1015.5 1015.4 0.0
28/03:30am 16.7 13.9 11.4 71 2.9 N 17 20 9 11 1015.6 1015.5 0.0
28/03:00am 16.3 13.5 11.2 72 2.7 N 17 20 9 11 1015.9 1015.8 0.0
28/02:30am 16.4 13.1 10.9 70 2.9 NNE 19 20 10 11 1016.1 1016.0 0.0
28/02:00am 16.5 13.3 11.2 71 2.9 NNE 19 22 10 12 1016.5 1016.4 0.0
28/01:30am 16.4 13.5 10.9 70 2.9 NNE 17 20 9 11 1016.8 1016.8 0.0
28/01:00am 16.6 13.4 11.1 70 3.0 NNE 19 22 10 12 1017.0 1017.0 0.0
28/12:30am 16.3 13.0 11.0 71 2.8 NNE 19 22 10 12 1017.3 1017.3 0.0
28/12:00am 16.4 13.0 11.1 71 2.8 NNE 20 28 11 15 1017.4 1017.4 0.0
 
Date/Time
WST
Tmp

°C
App
Tmp
°C
Dew
Point
°C
Rel
Hum
%
Delta-T

°C
Wind Press
QNH
hPa
Press
MSL
hPa
Rain
since
9 am
mm
Dir
 
Spd
km/h
Gust
km/h
Spd
kts
Gust
kts
27/11:30pm 16.4 12.1 10.9 70 2.9 NNE 24 32 13 17 1017.5 1017.5 0.0
27/11:00pm 16.2 12.3 10.9 71 2.8 NNE 22 28 12 15 1017.8 1017.8 0.0
27/10:30pm 15.8 12.5 10.8 72 2.7 NNE 19 24 10 13 1018.7 1018.7 0.0
27/10:00pm 15.8 12.5 11.0 73 2.6 NNE 19 20 10 11 1019.0 1019.0 0.0
27/09:30pm 15.7 12.8 10.9 73 2.6 NNE 17 20 9 11 1019.1 1019.1 0.0
27/09:00pm 16.3 14.2 11.0 71 2.8 NE 13 19 7 10 1019.0 1019.0 0.0
27/08:30pm 15.7 12.7 10.5 71 2.8 NE 17 19 9 10 1019.2 1019.2 0.0
27/08:00pm 16.5 14.7 10.8 69 3.0 NNW 11 13 6 7 1019.4 1019.4 0.0
27/07:30pm 16.5 15.1 11.0 70 3.0 NNW 9 11 5 6 1019.4 1019.4 0.0
27/07:00pm 16.5 15.4 10.6 68 3.1 NW 7 7 4 4 1019.1 1019.1 0.0
27/06:30pm 16.5 15.4 10.6 68 3.1 W 7 9 4 5 1019.5 1019.5 0.0
27/06:00pm 16.4 14.4 10.3 67 3.2 WSW 11 13 6 7 1019.5 1019.5 0.0
27/05:30pm 16.7 13.5 10.1 65 3.5 WSW 17 20 9 11 1019.6 1019.6 0.0
27/05:00pm 17.4 14.2 10.1 62 3.9 W 17 20 9 11 1019.3 1019.3 0.0
27/04:30pm 17.9 14.0 9.3 57 4.5 W 20 28 11 15 1019.2 1019.2 0.0
27/04:00pm 18.6 13.9 9.4 55 4.8 WSW 24 30 13 16 1019.3 1019.3 0.0
27/03:30pm 19.0 14.3 9.2 53 5.2 W 24 32 13 17 1019.3 1019.3 0.0
27/03:00pm 18.9 13.8 10.5 58 4.5 W 28 33 15 18 1019.2 1019.2 0.0
27/02:30pm 19.2 15.8 12.5 65 3.8 WNW 22 26 12 14 1018.9 1018.9 0.0
27/02:00pm 18.9 15.5 12.4 66 3.6 NW 22 28 12 15 1018.7 1018.7 0.0
27/01:30pm 18.2 15.9 13.1 72 2.9 NW 17 20 9 11 1018.8 1018.8 0.0
27/01:00pm 18.5 15.8 13.6 73 2.8 NW 20 26 11 14 1019.6 1019.6 0.0
27/12:30pm 18.0 16.1 12.9 72 2.9 N 15 20 8 11 1019.8 1019.8 0.0
27/12:00pm 18.5 17.1 13.4 72 2.9 N 13 19 7 10 1020.4 1020.4 0.0
27/11:30am 17.6 16.0 12.7 73 2.7 NNW 13 19 7 10 1020.9 1020.9 0.0
27/11:00am 17.1 15.3 12.2 73 2.7 NNW 13 17 7 9 1021.1 1021.1 0.0
27/10:30am 17.1 14.6 12.4 74 2.6 N 17 22 9 12 1021.1 1021.1 0.0
27/10:00am 16.8 14.0 12.7 77 2.3 NNE 19 22 10 12 1021.3 1021.3 0.0
27/09:30am 16.6 13.7 12.4 76 2.3 NNE 19 24 10 13 1021.7 1021.7 0.0
27/09:00am 16.7 14.8 11.8 73 2.7 NNE 13 20 7 11 1021.5 1021.5 0.2
27/08:30am 16.7 15.2 12.0 74 2.6 NE 11 15 6 8 1021.3 1021.3 0.2
27/08:00am 15.7 14.1 11.5 76 2.3 E 11 13 6 7 1021.3 1021.3 0.2
27/07:30am 14.5 12.0 9.7 73 2.5 E 13 15 7 8 1021.2 1021.2 0.2
27/07:00am 14.5 12.3 9.5 72 2.6 SE 11 17 6 9 1020.9 1020.9 0.2
27/06:30am 14.9 11.5 9.3 69 2.9 SE 17 20 9 11 1020.6 1020.6 0.2
27/06:00am 14.9 12.3 9.3 69 2.9 ESE 13 19 7 10 1020.6 1020.6 0.2
27/05:30am 15.1 12.5 9.5 69 2.9 SE 13 19 7 10 1020.6 1020.6 0.2
27/05:00am 14.9 12.5 9.9 72 2.6 SE 13 17 7 9 1020.4 1020.4 0.2
27/04:30am 15.6 12.0 9.9 69 3.0 SE 19 24 10 13 1020.4 1020.4 0.2
27/04:00am 15.5 11.9 9.8 69 3.0 SSE 19 24 10 13 1020.4 1020.4 0.2
27/03:30am 15.6 12.1 10.2 70 2.8 SSE 19 28 10 15 1020.7 1020.7 0.2
27/03:00am 15.5 11.8 9.4 67 3.1 SSE 19 22 10 12 1020.9 1020.9 0.2
27/02:30am 15.6 11.9 9.5 67 3.2 SSE 19 24 10 13 1021.1 1021.1 0.2
27/02:00am 15.5 11.6 9.4 67 3.1 S 20 24 11 13 1021.2 1021.2 0.2
27/01:30am 15.7 11.8 9.4 66 3.3 SSE 20 24 11 13 1021.6 1021.6 0.2
27/01:00am 15.8 12.0 9.7 67 3.2 SSE 20 26 11 14 1022.0 1022.0 0.2
27/12:30am 15.5 11.7 9.8 69 3.0 SSE 20 26 11 14 1022.2 1022.2 0.2
27/12:00am 15.4 11.3 10.2 71 2.7 SE 22 28 12 15 1022.2 1022.2 0.2
 
Date/Time
WST
Tmp

°C
App
Tmp
°C
Dew
Point
°C
Rel
Hum
%
Delta-T

°C
Wind Press
QNH
hPa
Press
MSL
hPa
Rain
since
9 am
mm
Dir
 
Spd
km/h
Gust
km/h
Spd
kts
Gust
kts
26/11:30pm 15.1 12.4 10.5 74 2.4 SE 15 22 8 12 1022.4 1022.4 0.2
26/11:00pm 15.6 12.0 10.4 71 2.7 SSE 20 24 11 13 1022.4 1022.4 0.2
26/10:30pm 15.5 12.1 10.5 72 2.6 SSE 19 24 10 13 1022.6 1022.6 0.2
26/10:00pm 15.4 11.7 10.2 71 2.7 S 20 22 11 12 1022.9 1022.9 0.2
26/09:30pm 15.5 12.0 10.3 71 2.7 S 19 20 10 11 1023.2 1023.2 0.2
26/09:00pm 15.5 12.0 10.1 70 2.8 S 19 22 10 12 1023.2 1023.2 0.2
26/08:30pm 15.5 11.7 9.8 69 3.0 S 20 22 11 12 1023.1 1023.1 0.2
26/08:00pm 15.7 11.9 9.8 68 3.1 S 20 24 11 13 1023.2 1023.2 0.2
26/07:30pm 15.2 11.6 9.8 70 2.8 S 19 26 10 14 1023.2 1023.2 0.2
26/07:00pm 15.6 11.8 9.7 68 3.1 S 20 24 11 13 1023.0 1023.0 0.2
26/06:30pm 15.6 11.8 9.9 69 3.0 S 20 24 11 13 1022.8 1022.8 0.2
26/06:00pm 15.4 11.6 9.7 69 3.0 S 20 24 11 13 1022.5 1022.5 0.2
26/05:30pm 15.9 12.1 9.8 67 3.2 S 20 24 11 13 1022.3 1022.3 0.2
26/05:00pm 16.2 12.5 10.1 67 3.2 SSE 20 24 11 13 1022.1 1022.1 0.2
26/04:30pm 16.6 12.5 10.0 65 3.5 S 22 26 12 14 1022.2 1022.2 0.2
26/04:00pm 16.9 12.5 10.5 66 3.4 S 24 30 13 16 1022.2 1022.2 0.2
26/03:30pm 17.1 13.2 10.9 67 3.3 S 22 28 12 15 1022.1 1022.1 0.2
26/03:00pm 16.9 12.6 10.7 67 3.3 SSE 24 30 13 16 1022.1 1022.1 0.2
26/02:30pm 16.8 12.6 11.1 69 3.1 S 24 32 13 17 1022.1 1022.1 0.2
26/02:00pm 16.8 11.8 10.9 68 3.2 SSE 28 35 15 19 1022.1 1022.1 0.2
26/01:30pm 16.6 12.0 10.9 69 3.1 S 26 35 14 19 1022.3 1022.3 0.2
26/01:00pm 16.2 10.9 11.2 72 2.7 SSE 30 37 16 20 1022.6 1022.6 0.2
26/12:30pm 15.7 12.1 13.2 85 1.4 SSE 24 33 13 18 1023.2 1023.2 0.2
26/12:00pm 15.6 11.0 13.4 87 1.2 S 30 35 16 19 1023.5 1023.5 0.2
26/11:30am 16.7 13.1 13.0 79 2.1 SSE 24 30 13 16 1023.6 1023.6 0.0
26/11:00am 16.9 11.3 13.2 79 2.1 S 35 43 19 23 1023.1 1023.1 0.0
26/10:30am 17.3 12.7 13.4 78 2.2 S 30 37 16 20 1023.3 1023.3 0.0
26/10:00am 17.1 12.0 13.2 78 2.2 S 32 39 17 21 1023.2 1023.2 0.0
26/09:30am 15.7 10.2 13.5 87 1.2 S 35 43 19 23 1023.2 1023.2 0.0
26/09:00am 16.1 9.9 13.8 86 1.3 S 39 48 21 26 1022.9 1022.9 0.0
26/08:30am 16.0 10.9 13.7 86 1.3 S 33 48 18 26 1022.6 1022.6 0.0
26/08:00am 15.8 10.8 14.0 89 1.0 S 33 43 18 23 1022.4 1022.4 0.0
26/07:30am 16.4 11.5 14.4 88 1.1 SSW 33 41 18 22 1022.0 1022.0 0.0
26/07:00am 16.4 10.7 14.2 87 1.2 SW 37 48 20 26 1021.8 1021.8 0.0
26/06:30am 17.1 13.5 14.2 83 1.7 WSW 26 35 14 19 1021.5 1021.5 0.0
26/06:00am 16.8 13.5 13.9 83 1.6 WSW 24 30 13 16 1020.8 1020.8 0.0
26/05:30am 17.5 14.2 14.0 80 2.0 WSW 24 33 13 18 1020.8 1020.8 0.0
26/05:00am 17.6 14.2 14.7 83 1.7 WSW 26 41 14 22 1020.5 1020.5 0.0
26/04:30am 17.8 12.7 14.7 82 1.8 WSW 35 44 19 24 1020.1 1020.1 0.0
26/04:15am 18.5 11.9 14.8 79 2.2 WSW 43 48 23 26 1019.9 1019.9 0.0
26/04:00am 19.0 13.4 14.5 75 2.6 W 37 48 20 26 1019.5 1019.5 0.0
26/03:30am 18.9 14.5 15.6 81 2.0 WNW 33 43 18 23 1019.3 1019.3 0.0
26/03:13am 18.9 15.1 15.8 82 1.8 W 30 35 16 19 1019.5 1019.5 0.0
26/03:00am 19.3 14.3 16.0 81 2.0 WNW 37 50 20 27 1019.4 1019.4 0.0
26/02:30am 19.5 15.4 16.0 80 2.1 NW 32 39 17 21 1019.5 1019.5 0.0
26/02:00am 19.7 14.9 15.6 77 2.4 NW 35 44 19 24 1019.5 1019.5 0.0
26/01:30am 19.6 15.5 15.9 79 2.2 NNW 32 43 17 23 1019.1 1019.1 0.0
26/01:00am 19.6 15.5 15.9 79 2.2 NNW 32 39 17 21 1019.4 1019.4 0.0
26/12:30am 19.7 14.9 15.6 77 2.4 NNW 35 43 19 23 1019.4 1019.4 0.0
26/12:00am 19.7 14.7 15.1 75 2.7 NNW 35 44 19 24 1019.5 1019.5 0.0
 
Date/Time
WST
Tmp

°C
App
Tmp
°C
Dew
Point
°C
Rel
Hum
%
Delta-T

°C
Wind Press
QNH
hPa
Press
MSL
hPa
Rain
since
9 am
mm
Dir
 
Spd
km/h
Gust
km/h
Spd
kts
Gust
kts
25/11:30pm 19.9 15.3 15.1 74 2.8 NNW 33 41 18 22 1020.0 1020.0 0.0
25/11:00pm 19.9 15.3 14.7 72 3.0 NNW 32 41 17 22 1020.3 1020.3 0.0
25/10:30pm 19.6 15.1 14.8 74 2.8 NNW 32 39 17 21 1020.3 1020.3 0.0
25/10:00pm 19.8 15.7 14.8 73 2.9 NNW 30 39 16 21 1020.6 1020.6 0.0
25/09:30pm 19.7 15.3 15.1 75 2.7 NNW 32 39 17 21 1020.8 1020.8 0.0
25/09:00pm 19.7 15.3 15.1 75 2.7 NNW 32 39 17 21 1021.0 1021.0 0.0
25/08:30pm 19.7 15.6 14.9 74 2.8 NNW 30 39 16 21 1020.7 1020.7 0.0
25/08:00pm 19.5 15.6 15.4 77 2.4 NNW 30 35 16 19 1020.5 1020.5 0.0
25/07:30pm 19.6 16.1 15.5 77 2.4 NNW 28 33 15 18 1020.2 1020.2 0.0
25/07:00pm 19.4 15.8 15.3 77 2.4 N 28 33 15 18 1020.1 1020.1 0.0

Latest Capital City Observations: Canberra | Sydney | Melbourne | Brisbane | Adelaide | Perth | Hobart | Darwin

Other Formats:

Comma delimited format used in spreadsheet applications
http://www.bom.gov.au/fwo/IDW60901/IDW60901.94602.axf

JavaScript Object Notation format (JSON) in row-major order
http://www.bom.gov.au/fwo/IDW60901/IDW60901.94602.json